Time;durP1;ratioP1;P1;durP2;ratioP2;P2;SDS_P1;SDS_P2;PMS_P1;PMS_P2;Temp;Humidity;BMP_temperature;BMP_pressure;BME280_temperature;BME280_humidity;BME280_pressure;Samples;Min_cycle;Max_cycle;Signal;HPM_P1;HPM_P2
2022/12/08 00:01:28;;;;;;;61.92;23.58;;;-0.60;99.90;;;;;;6162791;23;20025;-77
2022/12/08 00:03:58;;;;;;;60.95;23.80;;;-0.70;99.90;;;;;;6187650;23;20017;-79
2022/12/08 00:09:37;;;;;;;66.60;22.55;;;-0.60;99.90;;;;;;6160728;23;20023;-79
2022/12/08 00:12:11;;;;;;;64.75;23.92;;;-0.60;99.90;;;;;;6162346;23;20296;-79
2022/12/08 00:14:49;;;;;;;58.83;23.00;;;-0.60;99.90;;;;;;6137788;23;20036;-77
2022/12/08 00:17:16;;;;;;;60.33;22.77;;;-0.60;99.90;;;;;;6170924;23;20046;-77
2022/12/08 00:19:44;;;;;;;54.08;22.83;;;-0.60;99.90;;;;;;6162555;23;20331;-76
2022/12/08 00:22:13;;;;;;;52.65;23.02;;;-0.70;99.90;;;;;;6162080;23;20315;-80
2022/12/08 00:24:44;;;;;;;60.47;23.15;;;-0.70;99.90;;;;;;6161069;23;20028;-79
2022/12/08 00:27:14;;;;;;;64.32;22.75;;;1.60;99.90;;;;;;6162206;23;20017;-77
2022/12/08 00:29:44;;;;;;;57.80;22.48;;;1.50;99.90;;;;;;6161256;23;20016;-79
2022/12/08 00:32:12;;;;;;;68.82;23.35;;;1.40;99.90;;;;;;6198598;23;20009;-77
2022/12/08 00:34:40;;;;;;;;;;;0.10;99.90;;;;;;6113987;23;20017;-76
2022/12/08 00:37:07;;;;;;;54.67;20.65;;;-0.50;99.90;;;;;;6196706;23;20229;-80
2022/12/08 00:39:35;;;;;;;56.75;21.13;;;0.20;99.90;;;;;;6162429;23;20028;-81
2022/12/08 00:42:12;;;;;;;54.38;21.40;;;0.80;99.90;;;;;;6187981;23;20292;-79
2022/12/08 00:44:42;;;;;;;57.90;21.17;;;-0.60;99.90;;;;;;6160698;23;20028;-80
2022/12/08 00:47:10;;;;;;;57.53;21.42;;;1.00;99.90;;;;;;6137798;23;20028;-79
2022/12/08 00:49:38;;;;;;;56.30;21.42;;;1.30;99.90;;;;;;6186821;23;20419;-78
2022/12/08 00:52:06;;;;;;;55.65;20.80;;;-1.30;99.90;;;;;;6162139;23;20036;-76
2022/12/08 00:54:34;;;;;;;;;;;1.00;99.90;;;;;;6188516;23;20009;-78
2022/12/08 00:57:02;;;;;;;55.97;20.10;;;-0.80;99.90;;;;;;6160192;23;19915;-76
2022/12/08 00:59:29;;;;;;;;;;;-0.90;99.90;;;;;;6199331;23;20013;-76
2022/12/08 01:01:57;;;;;;;56.15;20.45;;;0.30;99.90;;;;;;6162116;23;19920;-78
2022/12/08 01:04:24;;;;;;;55.15;20.60;;;-1.00;99.90;;;;;;6160574;23;20362;-79
2022/12/08 01:06:52;;;;;;;53.58;20.48;;;-1.10;99.90;;;;;;6186872;23;20013;-80
2022/12/08 01:09:19;;;;;;;53.10;20.42;;;0.80;99.90;;;;;;6186814;23;20038;-79
2022/12/08 01:11:47;;;;;;;57.40;20.92;;;-1.20;99.90;;;;;;6160664;23;20021;-76
2022/12/08 01:14:15;;;;;;;55.92;21.38;;;-1.10;99.90;;;;;;6137682;23;20441;-77
2022/12/08 01:16:43;;;;;;;56.35;20.55;;;-1.10;99.90;;;;;;6136290;23;20017;-80
2022/12/08 01:19:12;;;;;;;51.08;21.20;;;-0.10;99.90;;;;;;6187609;23;20020;-76
2022/12/08 01:21:41;;;;;;;54.30;20.60;;;-1.10;99.90;;;;;;6161807;23;20013;-79
2022/12/08 01:24:14;;;;;;;55.10;20.73;;;-1.10;99.90;;;;;;6160117;23;20024;-78
2022/12/08 01:26:42;;;;;;;51.83;19.90;;;-1.20;99.90;;;;;;6137449;23;20017;-80
2022/12/08 01:29:10;;;;;;;62.67;21.63;;;-0.20;99.90;;;;;;6136782;23;20013;-79
2022/12/08 01:31:38;;;;;;;53.15;22.05;;;-1.20;99.90;;;;;;6186197;23;20024;-81
2022/12/08 01:34:07;;;;;;;56.78;21.92;;;-1.20;99.90;;;;;;6112712;23;20017;-77
2022/12/08 01:36:36;;;;;;;61.65;22.35;;;-1.20;99.90;;;;;;6135415;23;20017;-78
2022/12/08 01:39:06;;;;;;;63.03;23.30;;;-1.20;99.90;;;;;;6161379;23;20044;-78
2022/12/08 01:41:36;;;;;;;62.05;24.00;;;-1.20;99.90;;;;;;6161932;23;20024;-79
2022/12/08 01:44:09;;;;;;;76.60;26.00;;;1.30;99.90;;;;;;6160191;23;20017;-76
2022/12/08 01:46:39;;;;;;;64.50;24.83;;;-1.10;99.90;;;;;;6171484;23;20024;-78
2022/12/08 01:49:12;;;;;;;70.13;25.52;;;-1.20;99.90;;;;;;6187257;23;20032;-78
2022/12/08 01:51:58;;;;;;;68.57;23.58;;;-1.10;99.90;;;;;;6195986;23;20021;-76
2022/12/08 01:54:33;;;;;;;70.20;24.98;;;-1.10;99.90;;;;;;6172092;23;20020;-80
2022/12/08 01:57:07;;;;;;;69.88;25.20;;;-1.10;99.90;;;;;;6111053;23;20036;-78
2022/12/08 01:59:40;;;;;;;70.25;24.88;;;-1.10;99.90;;;;;;6137716;23;20032;-81
2022/12/08 02:02:09;;;;;;;74.15;25.27;;;-1.10;99.90;;;;;;6197678;23;20020;-77
2022/12/08 02:04:37;;;;;;;67.07;24.45;;;-1.10;99.90;;;;;;6160637;23;20021;-77
2022/12/08 02:07:07;;;;;;;65.97;23.50;;;-1.10;99.90;;;;;;6197448;23;20020;-77
2022/12/08 02:09:36;;;;;;;64.07;23.83;;;-1.40;99.90;;;;;;6160244;23;20326;-77
2022/12/08 02:12:04;;;;;;;72.20;24.73;;;-1.10;99.90;;;;;;6161224;23;20083;-77
2022/12/08 02:14:33;;;;;;;67.15;23.52;;;-1.10;99.90;;;;;;6161737;23;20020;-77
2022/12/08 02:17:46;;;;;;;64.45;23.17;;;-1.20;99.90;;;;;;6170690;23;20050;-78
2022/12/08 02:20:36;;;;;;;60.53;22.48;;;-1.20;99.90;;;;;;6157483;23;20020;-78
2022/12/08 02:23:25;;;;;;;56.25;22.65;;;1.10;99.90;;;;;;6196496;23;20017;-79
2022/12/08 02:26:12;;;;;;;62.65;23.27;;;-1.20;99.90;;;;;;6197355;23;20013;-76
2022/12/08 02:29:14;;;;;;;71.95;22.95;;;-1.20;99.90;;;;;;6197434;23;20009;-77
2022/12/08 02:32:15;;;;;;;66.80;23.42;;;-1.20;99.90;;;;;;6169825;23;20024;-76
2022/12/08 02:35:09;;;;;;;54.30;22.23;;;-1.20;99.90;;;;;;6171144;23;20301;-77
2022/12/08 02:37:44;;;;;;;60.20;22.58;;;-1.20;99.90;;;;;;6124072;23;20021;-78
2022/12/08 02:40:20;;;;;;;59.30;23.42;;;-1.20;99.90;;;;;;6173109;23;20292;-75
2022/12/08 02:43:16;;;;;;;63.13;23.88;;;-1.20;99.90;;;;;;6172197;23;20335;-78
2022/12/08 02:45:51;;;;;;;58.97;23.27;;;-1.20;99.90;;;;;;6197855;23;20319;-76
2022/12/08 02:48:18;;;;;;;64.13;23.45;;;0.90;99.90;;;;;;6173470;23;20013;-77
2022/12/08 02:50:46;;;;;;;57.65;22.35;;;-1.20;99.90;;;;;;6187064;23;20024;-81
2022/12/08 02:53:13;;;;;;;61.20;22.10;;;-1.30;99.90;;;;;;6188106;23;20322;-81
2022/12/08 02:55:55;;;;;;;66.55;23.27;;;-1.30;99.90;;;;;;6198786;23;19998;-77
2022/12/08 02:58:36;;;;;;;59.83;22.40;;;-1.30;99.90;;;;;;6164381;23;20021;-79
2022/12/08 03:01:25;;;;;;;58.53;22.38;;;-0.20;99.90;;;;;;6163348;23;20338;-80
2022/12/08 03:04:28;;;;;;;63.83;23.63;;;-1.30;99.90;;;;;;6197478;23;20016;-78
2022/12/08 03:07:07;;;;;;;59.60;23.15;;;-1.30;99.90;;;;;;6163585;23;20314;-80
2022/12/08 03:09:44;;;;;;;66.43;23.52;;;-1.30;99.90;;;;;;6161807;23;20017;-79
2022/12/08 03:12:37;;;;;;;61.55;24.58;;;-1.40;99.90;;;;;;6198676;23;20020;-77
2022/12/08 03:15:15;;;;;;;58.88;23.67;;;-1.40;99.90;;;;;;6131057;23;20024;-79
2022/12/08 03:17:47;;;;;;;56.65;22.67;;;-1.40;99.90;;;;;;6137369;23;20017;-78
2022/12/08 03:20:19;;;;;;;64.88;23.45;;;-1.40;99.90;;;;;;6197749;23;20017;-81
2022/12/08 03:22:49;;;;;;;58.42;22.85;;;-0.20;99.90;;;;;;6162096;23;20017;-77
2022/12/08 03:25:21;;;;;;;69.82;25.50;;;0.60;99.90;;;;;;6163334;23;20028;-79
2022/12/08 03:27:50;;;;;;;66.10;23.92;;;-1.60;99.90;;;;;;6172907;23;20017;-79
2022/12/08 03:30:18;;;;;;;63.28;23.77;;;0.60;99.90;;;;;;6186173;23;20020;-77
2022/12/08 03:32:46;;;;;;;59.22;22.25;;;0.60;99.90;;;;;;6162991;23;20287;-79
2022/12/08 03:35:27;;;;;;;57.90;22.95;;;-1.70;99.90;;;;;;6163293;23;20020;-78
2022/12/08 03:38:15;;;;;;;64.32;24.70;;;-0.90;99.90;;;;;;6171781;23;20032;-81
2022/12/08 03:41:17;;;;;;;62.85;23.38;;;0.00;99.90;;;;;;6162537;23;20040;-80
2022/12/08 03:43:31;;;;;;;61.70;22.85;;;0.60;99.90;;;;;;6187808;23;20013;-78
2022/12/08 03:45:59;;;;;;;62.00;23.05;;;-1.50;99.90;;;;;;6197546;23;20028;-80
2022/12/08 03:48:26;;;;;;;69.07;23.45;;;-1.50;99.90;;;;;;6163279;23;20036;-78
2022/12/08 03:50:54;;;;;;;63.08;24.40;;;0.00;99.90;;;;;;6161414;23;20517;-79
2022/12/08 03:53:22;;;;;;;56.55;23.30;;;-1.50;99.90;;;;;;6162416;23;20354;-80
2022/12/08 03:55:51;;;;;;;;;;;-1.30;99.90;;;;;;6198867;23;20009;-81
2022/12/08 03:58:21;;;;;;;58.35;21.92;;;-1.50;99.90;;;;;;6186714;23;19920;-80
2022/12/08 04:00:49;;;;;;;60.95;23.00;;;-1.50;99.90;;;;;;6189004;23;20017;-78
2022/12/08 04:03:17;;;;;;;60.70;23.92;;;-1.50;99.90;;;;;;6187141;23;20017;-81
2022/12/08 04:05:45;;;;;;;59.88;24.58;;;0.60;99.90;;;;;;6173389;23;20013;-82
2022/12/08 04:08:12;;;;;;;72.40;25.45;;;-1.60;99.90;;;;;;6188183;23;20020;-80
2022/12/08 04:10:41;;;;;;;67.70;25.35;;;-1.60;99.90;;;;;;6136442;23;20028;-77
2022/12/08 04:13:08;;;;;;;60.35;22.90;;;-0.60;99.90;;;;;;6163844;23;20021;-79
2022/12/08 04:15:36;;;;;;;63.78;23.73;;;0.00;99.90;;;;;;6162411;23;20013;-80
2022/12/08 04:18:03;;;;;;;65.10;24.10;;;0.60;99.90;;;;;;6161155;23;20024;-78
2022/12/08 04:20:39;;;;;;;56.40;23.77;;;-0.90;99.90;;;;;;6198410;23;20433;-80
2022/12/08 04:23:07;;;;;;;63.53;23.88;;;-0.80;99.90;;;;;;6170681;23;20036;-79
2022/12/08 04:25:35;;;;;;;63.00;24.58;;;-1.60;99.90;;;;;;6188060;23;20020;-79
2022/12/08 04:28:03;;;;;;;;;;;-1.60;99.90;;;;;;6188957;23;20319;-80
2022/12/08 04:30:31;;;;;;;52.90;22.25;;;-1.60;99.90;;;;;;6161117;23;19917;-80
2022/12/08 04:32:59;;;;;;;71.40;23.70;;;-1.70;99.90;;;;;;6162091;23;20017;-77
2022/12/08 04:35:27;;;;;;;63.25;23.80;;;-1.70;99.90;;;;;;6162588;23;20423;-77
2022/12/08 04:37:54;;;;;;;;;;;0.30;99.90;;;;;;6197058;23;20024;-78
2022/12/08 04:40:22;;;;;;;64.95;23.35;;;-1.70;99.90;;;;;;6161889;23;19927;-81
2022/12/08 04:42:50;;;;;;;;;;;-0.60;99.90;;;;;;6187111;23;20044;-78
2022/12/08 04:45:17;;;;;;;65.28;21.83;;;-1.70;99.90;;;;;;6137721;23;19927;-79
2022/12/08 04:47:45;;;;;;;61.50;23.55;;;-1.70;99.90;;;;;;6197753;23;20009;-81
2022/12/08 04:50:13;;;;;;;58.67;23.92;;;-1.70;99.90;;;;;;6186577;23;20013;-81
2022/12/08 04:52:41;;;;;;;;;;;-1.80;99.90;;;;;;6138334;23;20013;-78
2022/12/08 04:55:08;;;;;;;67.80;23.90;;;-1.10;99.90;;;;;;6161864;23;19916;-80
2022/12/08 04:57:36;;;;;;;67.75;25.52;;;-1.70;99.90;;;;;;6166626;23;20013;-79
2022/12/08 05:00:04;;;;;;;62.50;24.83;;;-1.70;99.90;;;;;;6161747;23;20456;-77
2022/12/08 05:02:33;;;;;;;65.38;25.88;;;-1.70;99.90;;;;;;6161902;23;20021;-78
2022/12/08 05:05:01;;;;;;;66.78;25.98;;;0.20;99.90;;;;;;6186555;23;20024;-77
2022/12/08 05:07:28;;;;;;;65.53;26.58;;;-1.80;99.90;;;;;;6138067;23;20044;-80
2022/12/08 05:09:56;;;;;;;71.95;26.00;;;-1.70;99.90;;;;;;6186415;23;20013;-79
2022/12/08 05:12:23;;;;;;;66.00;25.98;;;-1.70;99.90;;;;;;6188090;23;20017;-81
2022/12/08 05:14:51;;;;;;;60.70;24.40;;;-1.70;99.90;;;;;;6137163;23;20021;-78
2022/12/08 05:17:19;;;;;;;67.47;25.15;;;-1.70;99.90;;;;;;6160440;23;20020;-82
2022/12/08 05:19:46;;;;;;;68.57;26.45;;;-0.60;99.90;;;;;;6188213;23;20322;-80
2022/12/08 05:22:14;;;;;;;59.25;24.45;;;0.40;99.90;;;;;;6162086;23;20035;-76
2022/12/08 05:24:41;;;;;;;58.13;24.10;;;-1.70;99.90;;;;;;6185327;23;20017;-77
2022/12/08 05:27:14;;;;;;;59.03;23.90;;;-1.70;99.90;;;;;;6197571;23;20013;-77
2022/12/08 05:29:42;;;;;;;65.05;25.05;;;-1.70;99.90;;;;;;6160207;23;20024;-80
2022/12/08 05:32:09;;;;;;;59.35;24.63;;;-1.80;99.90;;;;;;6187618;23;20020;-81
2022/12/08 05:34:37;;;;;;;60.58;23.58;;;-1.80;99.90;;;;;;6187587;23;20013;-80
2022/12/08 05:37:04;;;;;;;60.53;24.23;;;-1.80;99.90;;;;;;6160849;23;20024;-79
2022/12/08 05:39:32;;;;;;;56.60;23.73;;;-1.60;99.90;;;;;;6137213;23;20020;-79
2022/12/08 05:41:59;;;;;;;55.42;22.45;;;-1.90;99.90;;;;;;6161577;23;20024;-78
2022/12/08 05:44:27;;;;;;;59.42;23.90;;;-1.90;99.90;;;;;;6186143;23;20024;-79
2022/12/08 05:46:54;;;;;;;59.22;23.80;;;-1.80;99.90;;;;;;6171482;23;20016;-78
2022/12/08 05:49:22;;;;;;;66.05;24.85;;;-1.90;99.90;;;;;;6187439;23;20013;-80
2022/12/08 05:51:50;;;;;;;69.03;24.52;;;-2.00;99.90;;;;;;6160376;23;20017;-77
2022/12/08 05:54:17;;;;;;;60.55;24.75;;;-1.90;99.90;;;;;;6187704;23;20013;-79
2022/12/08 05:56:45;;;;;;;61.78;25.48;;;0.50;99.90;;;;;;6169514;23;20009;-79
2022/12/08 05:59:12;;;;;;;66.93;24.98;;;-1.90;99.90;;;;;;6187661;23;20021;-78
2022/12/08 06:01:41;;;;;;;73.53;26.77;;;-0.30;99.90;;;;;;6161814;23;20021;-78
2022/12/08 06:04:09;;;;;;;61.70;25.17;;;-1.90;99.90;;;;;;6135925;23;20021;-77
2022/12/08 06:06:37;;;;;;;;;;;-1.90;99.90;;;;;;6137724;23;20032;-78
2022/12/08 06:09:05;;;;;;;59.35;23.48;;;-1.90;99.90;;;;;;6187342;23;19915;-81
2022/12/08 06:11:33;;;;;;;59.50;25.23;;;-2.00;99.90;;;;;;6161586;23;20024;-80
2022/12/08 06:14:02;;;;;;;67.57;26.90;;;-0.30;99.90;;;;;;6189420;23;20422;-79
2022/12/08 06:16:29;;;;;;;64.30;25.25;;;0.20;99.90;;;;;;6162630;23;20024;-78
2022/12/08 06:18:57;;;;;;;67.78;27.42;;;-2.30;99.90;;;;;;6189366;23;20017;-80
2022/12/08 06:21:25;;;;;;;67.60;25.60;;;-2.10;99.90;;;;;;6189383;23;20019;-81
2022/12/08 06:23:53;;;;;;;64.72;26.38;;;-2.00;99.90;;;;;;6137373;23;20044;-80
2022/12/08 06:26:21;;;;;;;70.07;25.98;;;-2.00;99.90;;;;;;6164026;23;20021;-82
2022/12/08 06:28:49;;;;;;;75.53;26.50;;;-2.00;99.90;;;;;;6163929;23;20013;-80
2022/12/08 06:31:22;;;;;;;;;;;-2.10;99.90;;;;;;6137953;23;20032;-78
2022/12/08 06:33:50;;;;;;;48.25;23.50;;;-2.00;99.90;;;;;;6163418;23;20324;-81
2022/12/08 06:36:18;;;;;;;;;;;-0.30;99.90;;;;;;6197219;23;20039;-79
2022/12/08 06:38:46;;;;;;;59.60;23.08;;;-2.10;99.90;;;;;;6139542;23;19920;-80
2022/12/08 06:41:14;;;;;;;60.88;23.38;;;-2.10;99.90;;;;;;6189668;23;20017;-76
2022/12/08 06:43:45;;;;;;;56.70;23.42;;;-2.30;99.90;;;;;;6187776;23;20394;-81
2022/12/08 06:46:23;;;;;;;61.08;23.92;;;-0.50;99.90;;;;;;6140229;23;20021;-76
2022/12/08 06:48:50;;;;;;;60.47;25.70;;;-0.40;99.90;;;;;;6138245;23;20028;-76
2022/12/08 06:51:21;;;;;;;67.35;24.42;;;-1.90;99.90;;;;;;6188025;23;20020;-79
2022/12/08 06:53:49;;;;;;;62.30;25.15;;;-1.30;99.90;;;;;;6163918;23;20040;-77
2022/12/08 06:56:22;;;;;;;58.50;24.35;;;-1.00;99.90;;;;;;6137498;23;20300;-79
2022/12/08 06:58:50;;;;;;;65.35;25.13;;;-2.20;99.90;;;;;;6141651;23;20033;-79
2022/12/08 07:01:19;;;;;;;66.53;25.00;;;-1.40;99.90;;;;;;6159054;23;20013;-78
2022/12/08 07:03:47;;;;;;;65.72;25.55;;;-1.10;99.90;;;;;;6107748;23;20028;-79
2022/12/08 07:06:21;;;;;;;64.32;24.73;;;-2.40;99.90;;;;;;6169325;23;20025;-78
2022/12/08 07:08:49;;;;;;;71.80;26.25;;;-1.20;99.90;;;;;;6143693;23;20014;-78
2022/12/08 07:11:17;;;;;;;64.05;25.17;;;-0.40;99.90;;;;;;6107837;23;20051;-77
2022/12/08 07:13:49;;;;;;;64.63;25.58;;;-0.30;99.90;;;;;;6109018;23;20030;-79
2022/12/08 07:16:17;;;;;;;79.40;26.98;;;-0.10;99.90;;;;;;6108309;23;20017;-79
2022/12/08 07:18:45;;;;;;;63.78;24.20;;;-3.00;99.90;;;;;;6133126;23;20438;-76
2022/12/08 07:21:16;;;;;;;66.38;24.15;;;-2.30;99.90;;;;;;6134021;23;20017;-76
2022/12/08 07:23:46;;;;;;;68.38;24.58;;;-0.50;99.90;;;;;;6166256;23;20024;-77
2022/12/08 07:26:24;;;;;;;65.10;25.23;;;-2.50;99.90;;;;;;6167865;23;20022;-80
2022/12/08 07:28:58;;;;;;;58.55;25.60;;;-1.20;99.90;;;;;;6107995;23;20439;-79
2022/12/08 07:31:27;;;;;;;68.28;27.10;;;0.10;99.90;;;;;;6167355;23;20017;-78
2022/12/08 07:33:57;;;;;;;68.68;25.90;;;-2.90;99.90;;;;;;6158754;23;20013;-78
2022/12/08 07:36:27;;;;;;;62.22;25.90;;;-0.90;99.90;;;;;;6167695;23;20013;-79
2022/12/08 07:38:55;;;;;;;75.53;26.13;;;-1.00;99.90;;;;;;6143113;23;20024;-79
2022/12/08 07:41:25;;;;;;;67.72;26.25;;;-0.40;99.90;;;;;;6108816;23;20018;-77
2022/12/08 07:43:53;;;;;;;73.68;26.80;;;0.00;99.90;;;;;;6132019;23;20021;-79
2022/12/08 07:46:25;;;;;;;79.97;27.65;;;-2.20;99.90;;;;;;6108004;23;20017;-79
2022/12/08 07:48:54;;;;;;;78.43;26.98;;;-2.20;99.90;;;;;;6132789;23;20013;-79
2022/12/08 07:51:23;;;;;;;79.22;28.05;;;-0.60;99.90;;;;;;6131736;23;20013;-79
2022/12/08 07:53:58;;;;;;;80.00;28.13;;;-0.20;99.90;;;;;;6086703;23;20074;-79
2022/12/08 07:56:29;;;;;;;73.68;25.63;;;-4.10;99.90;;;;;;6156415;23;20018;-80
2022/12/08 07:58:57;;;;;;;77.78;27.33;;;-0.30;99.90;;;;;;6132971;23;20040;-79
2022/12/08 08:01:38;;;;;;;77.30;26.10;;;-1.10;99.90;;;;;;6162702;23;20013;-79
2022/12/08 08:04:17;;;;;;;84.13;25.75;;;-3.60;99.90;;;;;;6136722;23;20017;-78
2022/12/08 08:07:09;;;;;;;69.82;26.00;;;0.00;99.90;;;;;;6138477;23;20453;-81
2022/12/08 08:09:58;;;;;;;67.28;24.35;;;-0.60;99.90;;;;;;6160441;23;20017;-77
2022/12/08 08:12:42;;;;;;;71.05;24.95;;;-0.30;99.90;;;;;;6162082;23;20017;-81
2022/12/08 08:15:40;;;;;;;;;;;;;;;;;;;;;
2022/12/08 08:18:23;;;;;;;69.65;25.55;;;-0.30;99.90;;;;;;6185134;23;20017;-81
2022/12/08 08:21:12;;;;;;;72.65;25.23;;;0.20;99.90;;;;;;6197731;23;20024;-79
2022/12/08 08:24:11;;;;;;;77.30;24.98;;;-2.50;99.90;;;;;;6177429;23;20013;-77
2022/12/08 08:26:41;;;;;;;81.60;27.58;;;0.00;99.90;;;;;;6148842;23;20017;-79
2022/12/08 08:29:16;;;;;;;77.13;27.52;;;-1.60;99.90;;;;;;6159939;23;20027;-79
2022/12/08 08:32:00;;;;;;;67.57;26.92;;;-0.20;99.90;;;;;;6171108;23;20009;-80
2022/12/08 08:35:29;;;;;;;58.83;24.10;;;0.50;99.90;;;;;;6037399;23;20026;-77
2022/12/08 08:37:57;;;;;;;67.13;25.20;;;0.30;99.90;;;;;;6043165;23;20019;-78
2022/12/08 08:40:28;;;;;;;63.90;24.70;;;-0.10;99.90;;;;;;6077189;23;20019;-77
2022/12/08 08:43:05;;;;;;;67.97;25.65;;;-0.10;99.90;;;;;;6076592;23;20117;-78
2022/12/08 08:45:38;;;;;;;73.30;25.80;;;-0.10;99.90;;;;;;6021551;23;20034;-79
2022/12/08 08:48:14;;;;;;;72.93;26.20;;;0.00;99.90;;;;;;6049643;23;20022;-81
2022/12/08 08:50:58;;;;;;;76.22;25.70;;;-1.80;99.90;;;;;;6113835;23;20017;-84
2022/12/08 08:53:27;;;;;;;73.88;26.77;;;1.20;99.90;;;;;;6138083;23;20032;-82
2022/12/08 08:56:25;;;;;;;;;;;;;;;;;;;;;
2022/12/08 08:59:08;;;;;;;84.47;26.08;;;-1.70;99.90;;;;;;6188876;23;20318;-79
2022/12/08 09:01:52;;;;;;;71.78;26.92;;;0.00;99.90;;;;;;6161649;23;20419;-80
2022/12/08 09:04:21;;;;;;;67.90;25.40;;;-1.70;99.90;;;;;;6160230;23;20426;-83
2022/12/08 09:06:51;;;;;;;75.35;25.73;;;0.00;99.90;;;;;;6162510;23;20072;-80
2022/12/08 09:09:30;;;;;;;63.55;24.52;;;0.30;99.90;;;;;;6161652;23;20020;-80
2022/12/08 09:12:13;;;;;;;71.03;24.95;;;-0.70;99.90;;;;;;6174718;23;20013;-80
2022/12/08 09:14:45;;;;;;;73.43;24.55;;;0.30;99.90;;;;;;6161322;23;20025;-80
2022/12/08 09:17:13;;;;;;;60.58;24.15;;;0.20;99.90;;;;;;6170717;23;20020;-82
2022/12/08 09:20:00;;;;;;;70.72;25.02;;;-1.20;99.90;;;;;;6174420;23;20032;-79
2022/12/08 09:22:44;;;;;;;68.65;24.48;;;0.10;99.90;;;;;;6196526;23;20013;-80
2022/12/08 09:25:23;;;;;;;65.90;24.35;;;0.50;99.90;;;;;;6171796;23;20012;-82
2022/12/08 09:28:14;;;;;;;66.63;25.20;;;0.80;99.90;;;;;;6162012;23;20047;-83
2022/12/08 09:30:41;;;;;;;66.45;25.55;;;0.30;99.90;;;;;;6196601;23;20013;-80
2022/12/08 09:33:13;;;;;;;67.15;25.60;;;-0.40;99.90;;;;;;6196903;23;20017;-79
2022/12/08 09:35:42;;;;;;;67.53;24.77;;;-0.90;99.90;;;;;;6112332;23;20020;-79
2022/12/08 09:38:16;;;;;;;76.60;26.23;;;-0.60;99.90;;;;;;6136739;23;20435;-80
2022/12/08 09:40:52;;;;;;;74.75;25.40;;;-1.30;99.90;;;;;;6161831;23;20469;-81
2022/12/08 09:43:25;;;;;;;72.75;25.67;;;0.20;99.90;;;;;;6196150;23;20322;-81
2022/12/08 09:45:55;;;;;;;70.50;26.25;;;0.10;99.90;;;;;;6161350;23;20334;-79
2022/12/08 09:48:33;;;;;;;70.00;25.48;;;0.60;99.90;;;;;;6161181;23;20021;-79
2022/12/08 09:51:03;;;;;;;63.47;26.67;;;-1.10;99.90;;;;;;6160620;23;20330;-81
2022/12/08 09:53:38;;;;;;;69.68;26.45;;;-1.00;99.90;;;;;;6161989;23;20009;-79
2022/12/08 09:56:23;;;;;;;72.25;24.42;;;0.10;99.90;;;;;;6160863;23;20028;-82
2022/12/08 09:59:07;;;;;;;65.88;25.42;;;-0.80;99.90;;;;;;6114512;23;20447;-78
2022/12/08 10:01:40;;;;;;;60.17;24.17;;;0.00;99.90;;;;;;6167743;23;20013;-78
2022/12/08 10:04:28;;;;;;;65.35;26.08;;;-0.10;99.90;;;;;;6130247;23;20017;-80
2022/12/08 10:07:06;;;;;;;70.00;25.73;;;-0.70;99.90;;;;;;6118883;23;20013;-77
2022/12/08 10:09:35;;;;;;;67.28;25.45;;;0.90;99.90;;;;;;6131196;23;20017;-82
2022/12/08 10:12:20;;;;;;;69.60;27.20;;;0.60;99.90;;;;;;6132194;23;20013;-81
2022/12/08 10:15:40;;;;;;;;;;;-1.50;99.90;;;;;;6167791;23;20037;-84
2022/12/08 10:18:34;;;;;;;65.57;24.45;;;-0.20;99.90;;;;;;6086637;23;19973;-76
2022/12/08 10:25:27;;;;;;;;;;;;;;;;;;;;;
2022/12/08 10:28:28;;;;;;;64.70;25.63;;;-0.40;99.90;;;;;;6131139;23;20025;-80
2022/12/08 10:30:57;;;;;;;63.85;26.52;;;1.50;99.90;;;;;;6165585;23;20022;-78
2022/12/08 10:33:27;;;;;;;69.88;27.33;;;0.60;99.90;;;;;;6156966;23;20014;-82
2022/12/08 10:36:08;;;;;;;;;;;;;;;;;;;;;
2022/12/08 10:38:55;;;;;;;;;;;;;;;;;;;;;
2022/12/08 10:41:28;;;;;;;66.07;28.38;;;0.70;99.90;;;;;;6155900;23;20036;-80
2022/12/08 10:44:10;;;;;;;63.63;27.45;;;1.20;99.90;;;;;;6155393;23;20319;-81
2022/12/08 10:46:38;;;;;;;70.45;27.33;;;0.40;99.90;;;;;;6166648;23;20021;-79
2022/12/08 10:49:06;;;;;;;70.75;27.67;;;1.00;99.90;;;;;;6157363;23;20021;-82
2022/12/08 10:51:42;;;;;;;68.07;28.38;;;1.10;99.90;;;;;;6130254;23;20427;-82
2022/12/08 10:54:59;;;;;;;68.35;27.10;;;-2.00;99.90;;;;;;6141580;23;20017;-80
2022/12/08 10:57:53;;;;;;;;;;;;;;;;;;;;;
2022/12/08 11:00:46;;;;;;;61.20;27.27;;;-0.40;99.90;;;;;;6068823;23;20022;-79
2022/12/08 11:03:35;;;;;;;64.07;27.10;;;-1.40;99.90;;;;;;6067813;23;20022;-76
2022/12/08 11:06:25;;;;;;;59.50;25.60;;;0.10;99.90;;;;;;6079341;23;20018;-79
2022/12/08 11:09:02;;;;;;;64.75;27.42;;;-0.10;99.90;;;;;;6078403;23;20019;-78
2022/12/08 11:12:13;;;;;;;65.15;26.13;;;0.20;99.90;;;;;;6043729;23;20018;-80
2022/12/08 11:16:18;;;;;;;;;;;;;;;;;;;;;
2022/12/08 11:20:09;;;;;;;59.38;25.75;;;-0.90;99.90;;;;;;5927891;24;20025;-80
2022/12/08 11:28:21;;;;;;;;;;;;;;;;;;;;;
2022/12/08 11:48:47;;;;;;;62.53;27.42;;;0.10;99.90;;;;;;5932232;24;20347;-81
2022/12/08 11:52:51;;;;;;;;;;;;;;;;;;;;;
2022/12/08 11:57:19;;;;;;;58.55;26.23;;;0.40;99.90;;;;;;6038040;23;20372;-82
2022/12/08 12:04:52;;;;;;;56.92;23.83;;;2.60;99.90;;;;;;6039688;23;20022;-82
2022/12/08 12:08:37;;;;;;;57.70;25.50;;;-0.90;99.90;;;;;;6133596;23;20037;-81
2022/12/08 12:12:20;;;;;;;50.85;24.60;;;-1.00;99.90;;;;;;6125548;23;20026;-82
2022/12/08 12:16:20;;;;;;;52.53;24.05;;;2.80;99.90;;;;;;6078069;23;20034;-82
2022/12/08 12:20:01;;;;;;;57.65;25.25;;;3.00;99.90;;;;;;6058726;23;20026;-82
2022/12/08 12:23:33;;;;;;;55.65;25.05;;;2.60;99.90;;;;;;6003124;23;20034;-79
2022/12/08 12:27:58;;;;;;;;;;;;;;;;;;;;;
2022/12/08 12:31:35;;;;;;;59.63;25.65;;;0.90;99.90;;;;;;5960244;24;20035;-80
2022/12/08 12:34:56;;;;;;;54.97;25.33;;;2.90;99.90;;;;;;6019012;23;20019;-80
2022/12/08 12:37:41;;;;;;;58.53;24.50;;;1.00;99.90;;;;;;6046790;23;20019;-79
2022/12/08 12:40:22;;;;;;;45.28;21.70;;;0.60;99.90;;;;;;6068339;23;20015;-77
2022/12/08 12:42:56;;;;;;;50.05;23.83;;;-1.10;99.90;;;;;;6054024;23;20437;-77
2022/12/08 12:45:28;;;;;;;50.67;23.10;;;0.70;99.90;;;;;;6044651;23;20018;-78
2022/12/08 12:48:05;;;;;;;45.17;23.00;;;1.90;99.90;;;;;;6078069;23;20356;-77
2022/12/08 12:50:46;;;;;;;45.58;22.15;;;3.40;99.90;;;;;;6139579;23;20017;-80
2022/12/08 12:53:25;;;;;;;54.60;22.00;;;1.00;99.90;;;;;;6118394;23;20017;-80
2022/12/08 12:55:58;;;;;;;;;;;3.00;99.90;;;;;;6168025;23;20009;-81
2022/12/08 12:58:56;;;;;;;;;;;;;;;;;;;;;
2022/12/08 13:01:54;;;;;;;42.33;21.35;;;2.40;99.90;;;;;;6149645;23;20031;-80
2022/12/08 13:09:43;;;;;;;;;;;;;;;;;;;;;
2022/12/08 13:13:07;;;;;;;;;;;;;;;;;;;;;
2022/12/08 13:17:05;;;;;;;57.60;22.08;;;1.10;99.90;;;;;;6111710;23;19917;-81
2022/12/08 13:20:57;;;;;;;45.78;20.52;;;3.30;99.90;;;;;;6058550;23;20038;-81
2022/12/08 13:24:19;;;;;;;43.72;21.50;;;0.00;99.90;;;;;;6091477;23;20032;-78
2022/12/08 13:27:09;;;;;;;38.53;17.42;;;1.30;99.90;;;;;;6100975;23;20022;-79
2022/12/08 13:29:38;;;;;;;45.17;19.15;;;-0.80;99.90;;;;;;6124543;23;20017;-76
2022/12/08 13:32:17;;;;;;;37.10;17.58;;;1.10;99.90;;;;;;6104814;23;20301;-80
2022/12/08 13:35:25;;;;;;;40.28;16.42;;;-0.20;99.90;;;;;;6160979;23;20318;-81
2022/12/08 13:38:01;;;;;;;41.72;17.38;;;2.60;99.90;;;;;;6137766;23;20430;-79
2022/12/08 13:41:28;;;;;;;37.40;18.17;;;3.40;99.90;;;;;;6160117;23;20020;-82
2022/12/08 13:44:49;;;;;;;35.17;17.38;;;3.80;99.90;;;;;;6116483;23;20032;-80
2022/12/08 13:47:56;;;;;;;40.17;17.20;;;0.30;99.90;;;;;;6186982;23;20017;-75
2022/12/08 13:50:57;;;;;;;35.80;17.00;;;1.50;99.90;;;;;;6195214;23;20013;-76
2022/12/08 13:53:58;;;;;;;31.63;16.10;;;1.40;99.90;;;;;;6161190;23;20377;-72
2022/12/08 13:56:51;;;;;;;35.03;17.23;;;2.50;99.90;;;;;;6160079;23;20021;-76
2022/12/08 13:59:43;;;;;;;40.03;19.23;;;1.50;99.90;;;;;;6160240;23;20024;-81
2022/12/08 14:02:32;;;;;;;34.47;17.75;;;1.70;99.90;;;;;;6197234;23;20024;-77
2022/12/08 14:05:00;;;;;;;39.78;18.17;;;1.60;99.90;;;;;;6170406;23;20021;-78
2022/12/08 14:07:54;;;;;;;40.90;18.85;;;3.10;99.90;;;;;;6122597;23;20427;-74
2022/12/08 14:10:26;;;;;;;39.22;19.05;;;4.30;99.90;;;;;;6186200;23;20017;-73
2022/12/08 14:13:14;;;;;;;41.70;19.23;;;2.70;99.90;;;;;;6137648;23;20021;-78
2022/12/08 14:15:41;;;;;;;39.15;19.30;;;1.60;99.90;;;;;;6197355;23;20013;-78
2022/12/08 14:18:28;;;;;;;38.72;17.67;;;3.30;99.90;;;;;;6186279;23;20024;-75
2022/12/08 14:21:11;;;;;;;41.40;18.57;;;1.70;99.90;;;;;;6161265;23;20035;-75
2022/12/08 14:23:48;;;;;;;35.45;18.10;;;2.10;99.90;;;;;;6160735;23;20254;-80
2022/12/08 14:26:16;;;;;;;;;;;3.60;99.90;;;;;;6162548;23;20029;-77
2022/12/08 14:28:44;;;;;;;36.45;17.05;;;1.60;99.90;;;;;;6137314;23;20282;-75
2022/12/08 14:31:13;;;;;;;33.13;16.95;;;3.20;99.90;;;;;;6160177;23;20009;-74
2022/12/08 14:33:41;;;;;;;36.95;17.63;;;1.10;99.90;;;;;;6188356;23;20009;-76